Time;durP1;ratioP1;P1;durP2;ratioP2;P2;SDS_P1;SDS_P2;PMS_P1;PMS_P2;Temp;Humidity;BMP_temperature;BMP_pressure;BME280_temperature;BME280_humidity;BME280_pressure;Samples;Min_cycle;Max_cycle;Signal;HPM_P1;HPM_P2
2021/08/18 00:00:40;;;;;;;4.90;2.85;;;20.20;62.10;;;;;;5059098;28;20025;-65
2021/08/18 00:03:06;;;;;;;6.30;3.33;;;20.20;62.10;;;;;;5059012;28;20064;-64
2021/08/18 00:05:32;;;;;;;5.20;2.75;;;20.20;62.10;;;;;;5059061;28;20098;-64
2021/08/18 00:07:57;;;;;;;5.03;2.60;;;20.20;62.10;;;;;;5058968;28;20465;-64
2021/08/18 00:10:25;;;;;;;5.28;2.80;;;20.20;62.20;;;;;;5053436;28;20025;-65
2021/08/18 00:12:50;;;;;;;5.10;2.90;;;20.20;62.20;;;;;;5054280;28;20037;-64
2021/08/18 00:15:16;;;;;;;5.63;2.60;;;20.20;62.20;;;;;;5055620;28;20673;-64
2021/08/18 00:17:43;;;;;;;5.15;2.95;;;20.20;62.20;;;;;;5055577;28;20036;-64
2021/08/18 00:20:09;;;;;;;6.90;3.00;;;20.20;62.20;;;;;;5054386;28;20027;-64
2021/08/18 00:22:34;;;;;;;5.20;2.67;;;20.10;62.20;;;;;;5054188;28;20136;-64
2021/08/18 00:25:00;;;;;;;5.18;2.90;;;20.20;62.20;;;;;;5054233;28;20052;-66
2021/08/18 00:27:25;;;;;;;5.60;3.00;;;20.20;62.20;;;;;;5055436;28;20020;-65
2021/08/18 00:29:51;;;;;;;5.68;2.97;;;20.20;62.20;;;;;;5054075;28;20436;-64
2021/08/18 00:32:16;;;;;;;5.40;3.08;;;20.20;62.20;;;;;;5055150;28;20029;-65
2021/08/18 00:34:42;;;;;;;5.55;2.92;;;20.20;62.30;;;;;;5055453;28;20465;-64
2021/08/18 00:37:07;;;;;;;5.05;2.90;;;20.20;62.30;;;;;;5054999;28;20500;-65
2021/08/18 00:39:33;;;;;;;6.10;3.38;;;20.10;62.30;;;;;;5055108;28;20075;-64
2021/08/18 00:41:59;;;;;;;6.72;3.20;;;20.20;62.30;;;;;;5055158;28;20454;-64
2021/08/18 00:44:25;;;;;;;5.90;2.70;;;20.10;62.30;;;;;;5054870;28;20029;-65
2021/08/18 00:46:57;;;;;;;6.85;2.95;;;20.20;62.30;;;;;;5055180;28;20033;-64
2021/08/18 00:49:23;;;;;;;5.15;2.78;;;20.20;62.30;;;;;;5055018;28;20029;-64
2021/08/18 00:51:50;;;;;;;5.32;2.70;;;20.20;62.30;;;;;;5055121;28;20416;-64
2021/08/18 00:54:16;;;;;;;6.15;3.38;;;20.20;62.30;;;;;;5054797;28;20025;-64
2021/08/18 00:56:43;;;;;;;5.10;2.83;;;20.20;62.30;;;;;;5054788;28;20036;-64
2021/08/18 00:59:10;;;;;;;5.53;3.10;;;20.10;62.30;;;;;;5054954;28;20021;-64
2021/08/18 01:01:36;;;;;;;7.13;3.65;;;20.20;62.30;;;;;;5054622;28;20171;-64
2021/08/18 01:04:02;;;;;;;5.72;3.50;;;20.20;62.30;;;;;;5054702;28;20523;-64
2021/08/18 01:06:28;;;;;;;5.97;3.22;;;20.20;62.40;;;;;;5054916;28;20174;-64
2021/08/18 01:08:54;;;;;;;6.97;3.15;;;20.20;62.30;;;;;;5054550;28;20140;-64
2021/08/18 01:11:19;;;;;;;5.38;2.83;;;20.20;62.30;;;;;;5054417;28;20047;-64
2021/08/18 01:13:45;;;;;;;5.68;3.22;;;20.10;62.40;;;;;;5054485;28;20115;-64
2021/08/18 01:16:11;;;;;;;6.20;3.40;;;20.10;62.40;;;;;;5054565;28;20025;-64
2021/08/18 01:18:40;;;;;;;5.30;3.00;;;20.20;62.30;;;;;;5054420;28;20029;-64
2021/08/18 01:21:07;;;;;;;5.45;2.63;;;20.10;62.40;;;;;;5052694;28;20024;-64
2021/08/18 01:23:33;;;;;;;5.85;3.10;;;20.20;62.40;;;;;;5054253;28;20053;-64
2021/08/18 01:25:58;;;;;;;7.18;3.80;;;20.20;62.40;;;;;;5054273;28;20063;-65
2021/08/18 01:28:25;;;;;;;5.93;3.20;;;20.10;62.40;;;;;;5054137;28;20056;-64
2021/08/18 01:30:51;;;;;;;6.45;3.38;;;20.10;62.40;;;;;;5054151;28;20037;-65
2021/08/18 01:33:17;;;;;;;8.35;3.80;;;20.10;62.40;;;;;;5054377;28;20090;-65
2021/08/18 01:35:50;;;;;;;6.32;3.40;;;20.10;62.40;;;;;;5054030;28;20381;-64
2021/08/18 01:38:18;;;;;;;6.45;3.42;;;20.10;62.40;;;;;;5054015;28;20029;-64
2021/08/18 01:40:47;;;;;;;5.80;3.05;;;20.10;62.40;;;;;;5052786;28;20078;-64
2021/08/18 01:43:13;;;;;;;7.65;3.67;;;20.10;62.40;;;;;;5053902;28;20060;-64
2021/08/18 01:45:41;;;;;;;6.63;3.75;;;20.10;62.50;;;;;;5054161;28;20350;-65
2021/08/18 01:48:18;;;;;;;7.22;3.60;;;20.20;62.50;;;;;;5053897;28;20452;-64
2021/08/18 01:50:49;;;;;;;8.13;3.90;;;20.10;62.50;;;;;;5052462;28;20378;-65
2021/08/18 01:53:25;;;;;;;5.55;3.15;;;20.10;62.50;;;;;;5054012;28;20388;-64
2021/08/18 01:55:51;;;;;;;6.63;3.92;;;20.10;62.50;;;;;;5053878;28;20040;-64
2021/08/18 01:58:18;;;;;;;7.43;3.30;;;20.10;62.50;;;;;;5053596;28;20025;-64
2021/08/18 02:00:44;;;;;;;7.35;4.00;;;20.10;62.50;;;;;;5053711;28;20024;-64
2021/08/18 02:03:09;;;;;;;6.72;3.50;;;20.10;62.50;;;;;;5053660;28;20021;-65
2021/08/18 02:05:35;;;;;;;7.57;3.97;;;20.10;62.50;;;;;;5053420;28;20602;-64
2021/08/18 02:08:00;;;;;;;6.80;3.95;;;20.10;62.50;;;;;;5053714;28;20035;-65
2021/08/18 02:10:28;;;;;;;7.10;4.10;;;20.10;62.50;;;;;;5053443;28;20028;-64
2021/08/18 02:12:53;;;;;;;7.00;3.85;;;20.10;62.60;;;;;;5053328;28;20032;-64
2021/08/18 02:15:28;;;;;;;6.90;4.10;;;20.10;62.60;;;;;;5053458;28;20017;-64
2021/08/18 02:17:55;;;;;;;6.30;3.25;;;20.10;62.60;;;;;;5053250;28;20029;-64
2021/08/18 02:20:25;;;;;;;7.78;4.25;;;20.10;62.60;;;;;;5053298;28;20481;-64
2021/08/18 02:22:51;;;;;;;7.78;3.92;;;20.10;62.60;;;;;;5053238;28;20029;-64
2021/08/18 02:25:17;;;;;;;7.50;4.10;;;20.10;62.60;;;;;;5053194;28;20096;-65
2021/08/18 02:27:42;;;;;;;5.80;3.50;;;20.10;62.60;;;;;;5053170;28;20063;-64
2021/08/18 02:30:10;;;;;;;7.13;3.90;;;20.10;62.60;;;;;;5053141;28;20029;-65
2021/08/18 02:32:36;;;;;;;6.25;3.67;;;20.00;62.70;;;;;;5052078;28;20497;-64
2021/08/18 02:35:02;;;;;;;6.30;3.70;;;20.10;62.70;;;;;;5051559;28;20044;-64
2021/08/18 02:37:27;;;;;;;6.85;3.78;;;20.10;62.60;;;;;;5053359;28;20507;-65
2021/08/18 02:39:53;;;;;;;6.20;3.67;;;20.10;62.60;;;;;;5052942;28;20021;-65
2021/08/18 02:42:19;;;;;;;6.20;3.67;;;20.10;62.60;;;;;;5053067;28;20025;-64
2021/08/18 02:44:46;;;;;;;7.05;3.95;;;20.10;62.60;;;;;;5053186;28;20480;-64
2021/08/18 02:47:12;;;;;;;6.55;3.63;;;20.10;62.70;;;;;;5053078;28;20075;-64
2021/08/18 02:49:38;;;;;;;6.85;3.67;;;20.10;62.70;;;;;;5051644;28;20025;-64
2021/08/18 02:52:04;;;;;;;6.22;3.45;;;20.10;62.60;;;;;;5052714;28;20060;-64
2021/08/18 02:54:29;;;;;;;7.20;4.32;;;20.10;62.70;;;;;;5052796;28;20025;-64
2021/08/18 02:56:55;;;;;;;6.82;3.75;;;20.10;62.70;;;;;;5052898;28;20036;-65
2021/08/18 02:59:21;;;;;;;6.10;3.83;;;20.10;62.70;;;;;;5052925;28;20479;-65
2021/08/18 03:01:47;;;;;;;7.07;4.00;;;20.10;62.70;;;;;;5051551;28;20025;-64
2021/08/18 03:04:13;;;;;;;8.20;4.35;;;20.10;62.60;;;;;;5052780;28;20021;-64
2021/08/18 03:06:38;;;;;;;6.72;3.97;;;20.10;62.60;;;;;;5051449;28;20376;-64
2021/08/18 03:09:04;;;;;;;7.28;4.35;;;20.10;62.70;;;;;;5052728;28;20022;-64
2021/08/18 03:11:29;;;;;;;6.72;3.70;;;20.10;62.70;;;;;;5052689;28;20025;-65
2021/08/18 03:13:55;;;;;;;7.07;4.10;;;20.10;62.70;;;;;;5052716;28;20100;-64
2021/08/18 03:16:20;;;;;;;7.00;3.88;;;20.10;62.70;;;;;;5052595;28;20112;-64
2021/08/18 03:18:46;;;;;;;7.22;3.97;;;20.10;62.70;;;;;;5052574;28;20461;-64
2021/08/18 03:21:11;;;;;;;7.45;4.05;;;20.10;62.70;;;;;;5052528;28;20029;-64
2021/08/18 03:23:37;;;;;;;6.80;4.03;;;20.10;62.70;;;;;;5052567;28;20029;-64
2021/08/18 03:26:03;;;;;;;7.10;4.10;;;20.00;62.80;;;;;;5052563;28;20497;-65
2021/08/18 03:28:28;;;;;;;7.55;4.38;;;20.10;62.70;;;;;;5052551;28;20357;-65
2021/08/18 03:30:54;;;;;;;6.63;3.88;;;20.10;62.70;;;;;;5052378;28;20021;-64
2021/08/18 03:33:19;;;;;;;7.10;4.35;;;20.10;62.70;;;;;;5051332;28;20033;-65
2021/08/18 03:35:45;;;;;;;7.07;4.00;;;20.10;62.80;;;;;;5052288;28;20187;-64
2021/08/18 03:38:10;;;;;;;6.97;3.83;;;20.10;62.80;;;;;;5052569;28;20035;-64
2021/08/18 03:40:36;;;;;;;7.13;4.38;;;20.10;62.80;;;;;;5052403;28;20531;-65
2021/08/18 03:43:02;;;;;;;6.80;3.83;;;20.00;62.80;;;;;;5052388;28;20032;-64
2021/08/18 03:45:28;;;;;;;8.52;3.55;;;20.00;62.80;;;;;;5056083;28;20020;-64
2021/08/18 03:47:53;;;;;;;6.60;3.78;;;20.10;62.80;;;;;;5056365;28;20358;-64
2021/08/18 03:50:19;;;;;;;7.88;3.90;;;20.00;62.80;;;;;;5056065;28;20029;-64
2021/08/18 03:52:45;;;;;;;6.88;4.03;;;20.00;62.80;;;;;;5054713;28;20060;-64
2021/08/18 03:55:12;;;;;;;7.28;4.30;;;20.10;62.80;;;;;;5054804;28;20021;-64
2021/08/18 03:57:38;;;;;;;7.07;3.83;;;20.00;62.80;;;;;;5054662;28;20041;-64
2021/08/18 04:00:04;;;;;;;7.10;4.07;;;20.10;62.80;;;;;;5055860;28;20025;-64
2021/08/18 04:02:30;;;;;;;7.72;4.28;;;20.00;62.80;;;;;;5055947;28;20108;-64
2021/08/18 04:04:56;;;;;;;6.72;4.55;;;20.00;62.90;;;;;;5056039;28;20452;-64
2021/08/18 04:07:21;;;;;;;6.95;4.05;;;20.00;62.90;;;;;;5055806;28;20527;-64
2021/08/18 04:09:47;;;;;;;7.30;4.32;;;20.00;62.90;;;;;;5056030;28;20070;-64
2021/08/18 04:12:12;;;;;;;8.15;4.55;;;20.00;62.90;;;;;;5055593;28;20033;-64
2021/08/18 04:14:38;;;;;;;9.85;4.22;;;20.00;62.90;;;;;;5055588;28;20357;-64
2021/08/18 04:17:03;;;;;;;6.53;3.80;;;20.00;62.90;;;;;;5055616;28;20454;-64
2021/08/18 04:19:29;;;;;;;6.50;4.00;;;20.00;62.90;;;;;;5055559;28;20025;-63
2021/08/18 04:21:54;;;;;;;6.38;3.72;;;20.00;63.00;;;;;;5055569;28;20534;-64
2021/08/18 04:24:20;;;;;;;6.53;4.13;;;20.00;63.00;;;;;;5055478;28;20031;-64
2021/08/18 04:26:45;;;;;;;6.90;4.00;;;20.00;62.90;;;;;;5054229;28;20021;-64
2021/08/18 04:29:11;;;;;;;6.78;4.18;;;20.00;63.00;;;;;;5055343;28;20051;-63
2021/08/18 04:31:37;;;;;;;6.68;3.63;;;20.00;63.00;;;;;;5053961;28;20021;-64
2021/08/18 04:34:02;;;;;;;6.45;4.07;;;20.00;63.00;;;;;;5053979;28;20029;-64
2021/08/18 04:36:28;;;;;;;7.57;4.40;;;20.00;63.00;;;;;;5054963;28;20084;-64
2021/08/18 04:38:53;;;;;;;6.13;3.50;;;20.00;63.00;;;;;;5055208;28;20107;-64
2021/08/18 04:41:19;;;;;;;7.55;4.22;;;20.00;63.00;;;;;;5055108;28;20055;-64
2021/08/18 04:43:44;;;;;;;6.32;3.67;;;20.00;63.00;;;;;;5055025;28;20033;-63
2021/08/18 04:46:09;;;;;;;6.00;3.40;;;20.00;63.00;;;;;;5055333;28;20025;-64
2021/08/18 04:48:35;;;;;;;6.38;3.63;;;20.00;63.00;;;;;;5053752;28;20040;-63
2021/08/18 04:51:02;;;;;;;6.82;3.70;;;20.00;63.00;;;;;;5055051;28;20029;-64
2021/08/18 04:53:28;;;;;;;8.00;3.92;;;20.00;63.00;;;;;;5055145;28;20033;-64
2021/08/18 04:55:54;;;;;;;6.80;3.80;;;20.00;63.10;;;;;;5054480;28;20101;-64
2021/08/18 04:58:19;;;;;;;7.03;4.07;;;20.00;63.10;;;;;;5054754;28;20029;-63
2021/08/18 05:00:45;;;;;;;8.60;4.25;;;20.00;63.10;;;;;;5054705;28;20025;-64
2021/08/18 05:03:14;;;;;;;7.13;3.83;;;20.00;63.20;;;;;;5054683;28;20090;-63
2021/08/18 05:05:40;;;;;;;6.70;4.00;;;20.00;63.10;;;;;;5054603;28;20033;-64
2021/08/18 05:08:07;;;;;;;5.93;3.55;;;20.00;63.10;;;;;;5054821;28;20036;-64
2021/08/18 05:10:33;;;;;;;7.30;3.90;;;20.00;63.10;;;;;;5054541;28;20070;-64
2021/08/18 05:12:59;;;;;;;5.90;3.50;;;20.00;63.20;;;;;;5054622;28;20033;-64
2021/08/18 05:15:24;;;;;;;7.53;3.63;;;20.00;63.20;;;;;;5054450;28;20074;-64
2021/08/18 05:17:50;;;;;;;7.30;3.83;;;20.00;63.20;;;;;;5054386;28;20090;-64
2021/08/18 05:20:16;;;;;;;7.28;3.67;;;20.00;63.10;;;;;;5054514;28;20040;-64
2021/08/18 05:22:43;;;;;;;6.43;3.53;;;20.00;63.20;;;;;;5054264;28;20082;-64
2021/08/18 05:25:09;;;;;;;7.22;3.92;;;20.00;63.10;;;;;;5054334;28;20051;-64
2021/08/18 05:27:35;;;;;;;7.82;3.95;;;20.00;63.10;;;;;;5054125;28;20029;-65
2021/08/18 05:30:01;;;;;;;6.80;3.70;;;20.00;63.10;;;;;;5054176;28;20476;-64
2021/08/18 05:32:26;;;;;;;6.20;3.40;;;20.00;63.10;;;;;;5054067;28;20079;-64
2021/08/18 05:34:52;;;;;;;6.40;3.63;;;20.00;63.10;;;;;;5053986;28;20032;-63
2021/08/18 05:37:17;;;;;;;6.95;3.40;;;20.00;63.10;;;;;;5054086;28;20431;-63
2021/08/18 05:39:43;;;;;;;6.97;3.70;;;20.00;63.10;;;;;;5052719;28;20102;-64
2021/08/18 05:42:08;;;;;;;6.80;4.15;;;20.00;63.10;;;;;;5054014;28;20021;-63
2021/08/18 05:44:34;;;;;;;5.90;3.58;;;20.00;63.10;;;;;;5052557;28;20021;-64
2021/08/18 05:46:59;;;;;;;7.20;4.10;;;20.00;63.10;;;;;;5053881;28;20498;-64
2021/08/18 05:49:25;;;;;;;5.82;3.30;;;20.00;63.10;;;;;;5053760;28;20059;-64
2021/08/18 05:51:51;;;;;;;6.60;3.42;;;20.00;63.10;;;;;;5053721;28;20045;-64
2021/08/18 05:54:17;;;;;;;5.97;3.10;;;20.00;63.10;;;;;;5053726;28;20025;-64
2021/08/18 05:56:42;;;;;;;6.50;3.47;;;20.00;63.10;;;;;;5053737;28;20029;-65
2021/08/18 05:59:08;;;;;;;6.43;3.53;;;20.00;63.10;;;;;;5053854;28;20028;-64
2021/08/18 06:01:33;;;;;;;6.05;3.42;;;20.00;63.10;;;;;;5052426;28;20350;-64
2021/08/18 06:03:59;;;;;;;6.47;3.45;;;20.00;63.00;;;;;;5053521;28;20028;-64
2021/08/18 06:06:24;;;;;;;6.15;3.75;;;20.10;63.10;;;;;;5053430;28;20032;-64
2021/08/18 06:08:50;;;;;;;5.20;3.13;;;20.00;63.00;;;;;;5052795;28;20060;-64
2021/08/18 06:11:15;;;;;;;5.47;3.10;;;20.00;63.10;;;;;;5053286;28;20071;-64
2021/08/18 06:13:41;;;;;;;5.65;2.95;;;20.00;63.10;;;;;;5052412;28;20033;-64
2021/08/18 06:16:06;;;;;;;5.93;3.22;;;20.00;63.10;;;;;;5053377;28;20021;-64
2021/08/18 06:18:32;;;;;;;6.93;3.42;;;20.00;63.10;;;;;;5053334;28;20035;-64
2021/08/18 06:20:58;;;;;;;6.13;3.17;;;20.00;63.00;;;;;;5053204;28;20029;-64
2021/08/18 06:23:26;;;;;;;5.53;3.20;;;20.00;63.00;;;;;;5053283;28;20040;-64
2021/08/18 06:25:53;;;;;;;5.90;3.13;;;20.10;63.10;;;;;;5052960;28;20107;-64
2021/08/18 06:28:19;;;;;;;6.70;3.78;;;20.00;63.10;;;;;;5049805;28;20502;-67
2021/08/18 06:30:44;;;;;;;5.97;3.50;;;20.00;63.00;;;;;;5059380;28;20067;-63
2021/08/18 06:33:10;;;;;;;6.28;3.40;;;20.00;63.10;;;;;;5051765;28;20041;-64
2021/08/18 06:35:35;;;;;;;6.85;3.70;;;20.00;63.00;;;;;;5050225;28;20040;-63
2021/08/18 06:38:01;;;;;;;6.65;3.63;;;20.10;63.10;;;;;;5067789;28;20103;-63
2021/08/18 06:40:26;;;;;;;5.35;3.10;;;20.10;62.90;;;;;;5051633;28;20112;-62
2021/08/18 06:42:52;;;;;;;6.65;3.85;;;20.20;62.90;;;;;;5032169;28;20017;-62
2021/08/18 06:45:18;;;;;;;10.45;3.38;;;20.20;62.90;;;;;;5059567;28;20090;-64
2021/08/18 06:47:43;;;;;;;6.47;3.70;;;20.10;62.70;;;;;;5052153;28;20013;-64
2021/08/18 06:50:10;;;;;;;5.13;2.88;;;20.20;62.90;;;;;;5051477;28;20065;-65
2021/08/18 06:52:36;;;;;;;5.57;2.92;;;20.20;62.80;;;;;;5051663;28;20075;-62
2021/08/18 06:55:02;;;;;;;6.05;3.33;;;20.20;63.10;;;;;;5066044;28;20028;-62
2021/08/18 06:57:28;;;;;;;6.85;3.75;;;20.20;63.00;;;;;;5054541;28;20040;-70
2021/08/18 06:59:53;;;;;;;5.10;2.90;;;20.20;62.80;;;;;;5066688;28;20021;-63
2021/08/18 07:02:19;;;;;;;5.55;3.03;;;20.20;63.20;;;;;;5054206;28;20330;-63
2021/08/18 07:04:44;;;;;;;7.57;3.78;;;20.30;63.30;;;;;;5058596;28;20032;-63
2021/08/18 07:07:10;;;;;;;8.88;3.15;;;20.30;63.10;;;;;;5055384;28;20504;-65
2021/08/18 07:09:35;;;;;;;7.60;2.85;;;20.30;63.00;;;;;;5046042;28;20040;-70
2021/08/18 07:12:00;;;;;;;6.38;3.40;;;20.40;63.10;;;;;;5060429;28;20056;-67
2021/08/18 07:14:26;;;;;;;7.50;3.47;;;20.40;62.90;;;;;;5061680;28;20035;-67
2021/08/18 07:16:51;;;;;;;6.63;3.35;;;20.40;63.10;;;;;;5051144;28;20028;-67
2021/08/18 07:19:17;;;;;;;8.48;3.88;;;20.50;63.00;;;;;;5053855;28;20109;-66
2021/08/18 07:21:42;;;;;;;7.10;2.97;;;20.50;63.30;;;;;;5049970;28;20021;-69
2021/08/18 07:24:08;;;;;;;7.28;3.35;;;20.50;63.50;;;;;;5054785;28;20056;-68
2021/08/18 07:26:34;;;;;;;8.55;3.70;;;20.50;64.00;;;;;;5064263;28;20543;-69
2021/08/18 07:28:59;;;;;;;10.70;3.80;;;20.60;64.60;;;;;;5060822;28;20105;-67
2021/08/18 07:31:26;;;;;;;6.60;3.22;;;20.60;64.60;;;;;;5064008;28;20036;-71
2021/08/18 07:33:52;;;;;;;6.28;3.42;;;20.60;64.50;;;;;;5047964;28;20051;-68
2021/08/18 07:36:18;;;;;;;9.55;3.03;;;20.60;64.70;;;;;;5066524;28;20091;-70
2021/08/18 07:38:43;;;;;;;11.77;3.65;;;20.60;64.90;;;;;;5058685;28;20029;-68
2021/08/18 07:41:09;;;;;;;9.50;3.67;;;20.70;64.80;;;;;;5062171;28;20136;-68
2021/08/18 07:43:34;;;;;;;6.32;3.33;;;20.70;64.80;;;;;;5055961;28;20416;-72
2021/08/18 07:46:00;;;;;;;8.20;3.50;;;20.70;64.70;;;;;;5069877;28;20122;-73
2021/08/18 07:48:27;;;;;;;8.82;3.45;;;20.70;64.70;;;;;;5057174;28;20061;-68
2021/08/18 07:50:53;;;;;;;6.18;3.22;;;20.80;64.60;;;;;;5064370;28;20074;-69
2021/08/18 07:53:18;;;;;;;7.00;3.45;;;20.80;64.50;;;;;;5069069;28;20028;-69
2021/08/18 07:55:43;;;;;;;12.07;3.75;;;20.80;64.90;;;;;;5057242;28;20639;-70
2021/08/18 07:58:09;;;;;;;6.15;3.35;;;20.80;64.70;;;;;;5060217;28;20024;-66
2021/08/18 08:00:38;;;;;;;5.70;3.05;;;20.80;64.70;;;;;;5056591;28;20031;-66
2021/08/18 08:03:03;;;;;;;6.55;3.10;;;20.90;65.10;;;;;;5052948;28;20362;-67
2021/08/18 08:05:29;;;;;;;9.95;4.13;;;20.90;65.10;;;;;;5063930;28;20112;-69
2021/08/18 08:07:55;;;;;;;6.15;3.58;;;20.90;64.90;;;;;;5070187;28;20473;-70
2021/08/18 08:10:20;;;;;;;11.23;4.00;;;20.90;65.00;;;;;;5060568;28;20036;-69
2021/08/18 08:12:46;;;;;;;6.70;3.40;;;21.00;64.70;;;;;;5055712;28;20037;-68
2021/08/18 08:15:12;;;;;;;7.13;3.60;;;21.00;64.80;;;;;;5068805;28;20029;-68
2021/08/18 08:17:38;;;;;;;8.82;3.35;;;21.00;64.70;;;;;;5055642;28;20025;-69
2021/08/18 08:20:05;;;;;;;7.22;3.40;;;21.00;64.70;;;;;;5055597;28;20112;-69
2021/08/18 08:22:31;;;;;;;5.85;3.25;;;21.00;64.80;;;;;;5062738;28;20039;-67
2021/08/18 08:24:56;;;;;;;5.82;3.00;;;21.00;64.70;;;;;;5058642;28;20025;-67
2021/08/18 08:27:22;;;;;;;7.78;3.28;;;21.00;65.00;;;;;;5055591;28;20506;-69
2021/08/18 08:29:48;;;;;;;6.50;3.40;;;21.00;64.90;;;;;;5060174;28;20392;-67
2021/08/18 08:32:13;;;;;;;7.90;3.00;;;21.10;65.00;;;;;;5058714;28;20070;-67
2021/08/18 08:34:39;;;;;;;6.35;3.80;;;21.10;65.20;;;;;;5056025;28;20028;-65
2021/08/18 08:37:05;;;;;;;10.70;3.95;;;21.10;64.90;;;;;;5065579;28;20045;-68
2021/08/18 08:39:30;;;;;;;7.68;3.30;;;21.20;65.10;;;;;;5053209;28;20163;-65
2021/08/18 08:41:56;;;;;;;7.95;3.40;;;21.20;65.10;;;;;;5050202;28;20025;-64
2021/08/18 08:44:24;;;;;;;8.95;3.45;;;21.20;65.00;;;;;;5052567;28;20100;-66
2021/08/18 08:46:52;;;;;;;9.73;3.88;;;21.20;65.10;;;;;;5060522;28;20020;-69
2021/08/18 08:49:19;;;;;;;7.88;3.45;;;21.30;65.20;;;;;;5052401;28;20024;-67
2021/08/18 08:51:46;;;;;;;8.30;3.70;;;21.30;65.10;;;;;;5056519;28;20411;-66
2021/08/18 08:54:12;;;;;;;7.95;3.22;;;21.30;65.10;;;;;;5066147;28;20040;-69
2021/08/18 08:56:37;;;;;;;8.02;3.60;;;21.30;65.10;;;;;;5062024;28;20025;-68
2021/08/18 08:59:03;;;;;;;7.95;3.30;;;21.30;65.30;;;;;;5062934;28;20112;-69
2021/08/18 09:01:58;;;;;;;12.10;3.13;;;21.40;65.10;;;;;;5062811;28;20031;-68
2021/08/18 09:04:28;;;;;;;9.55;3.63;;;21.40;64.80;;;;;;5057954;28;20046;-68
2021/08/18 09:07:09;;;;;;;7.13;3.58;;;21.30;64.90;;;;;;5059032;28;20369;-67
2021/08/18 09:09:36;;;;;;;8.15;3.30;;;21.30;64.90;;;;;;5054993;28;20028;-68
2021/08/18 09:12:16;;;;;;;9.32;3.17;;;21.30;64.80;;;;;;5036317;28;20029;-68
2021/08/18 09:14:42;;;;;;;6.70;3.15;;;21.30;64.70;;;;;;5053047;28;20492;-69
2021/08/18 09:17:27;;;;;;;9.45;2.90;;;21.30;64.70;;;;;;5050809;28;20032;-66
2021/08/18 09:20:24;;;;;;;11.00;3.75;;;21.30;64.90;;;;;;5050543;28;20027;-68
2021/08/18 09:22:56;;;;;;;7.53;3.28;;;21.30;65.10;;;;;;5043220;28;20450;-66
2021/08/18 09:25:23;;;;;;;6.10;2.88;;;21.20;65.00;;;;;;5050029;28;20104;-67
2021/08/18 09:28:11;;;;;;;7.38;3.00;;;21.20;64.90;;;;;;5050182;28;20052;-72
2021/08/18 09:30:39;;;;;;;8.30;3.45;;;21.20;64.80;;;;;;5046292;28;20114;-73
2021/08/18 09:33:10;;;;;;;6.93;3.15;;;21.20;64.70;;;;;;5045618;28;20029;-71
2021/08/18 09:35:37;;;;;;;6.57;2.92;;;21.20;64.80;;;;;;5053371;28;20116;-72
2021/08/18 09:38:05;;;;;;;4.88;2.55;;;21.20;64.80;;;;;;5040006;28;20109;-68
2021/08/18 09:40:38;;;;;;;5.80;2.70;;;21.20;64.70;;;;;;5018815;28;20068;-70
2021/08/18 09:43:14;;;;;;;6.07;2.93;;;21.30;64.70;;;;;;5066727;28;20104;-67
2021/08/18 09:46:01;;;;;;;6.57;2.70;;;21.30;64.70;;;;;;5047107;28;20051;-69
2021/08/18 09:48:32;;;;;;;4.85;2.80;;;21.30;64.60;;;;;;5038351;28;20036;-72
2021/08/18 09:51:05;;;;;;;7.38;2.65;;;21.30;64.70;;;;;;5035466;28;20029;-70
2021/08/18 09:53:39;;;;;;;5.85;2.88;;;21.30;64.60;;;;;;5054692;28;20154;-71
2021/08/18 09:56:06;;;;;;;5.88;2.67;;;21.40;64.60;;;;;;5049189;28;20024;-71
2021/08/18 09:58:33;;;;;;;8.25;3.08;;;21.30;64.60;;;;;;5030613;28;20048;-68
2021/08/18 10:01:01;;;;;;;5.13;2.60;;;21.40;64.50;;;;;;5033187;28;20068;-70
2021/08/18 10:03:27;;;;;;;7.55;2.53;;;21.40;64.50;;;;;;5042574;28;20032;-71
2021/08/18 10:05:56;;;;;;;6.13;2.25;;;21.40;64.50;;;;;;5056630;28;20487;-71
2021/08/18 10:08:23;;;;;;;5.72;2.78;;;21.40;64.40;;;;;;5040730;28;20040;-75
2021/08/18 10:10:49;;;;;;;7.18;3.05;;;21.50;64.40;;;;;;5046874;28;20480;-69
2021/08/18 10:13:15;;;;;;;5.55;2.85;;;21.50;64.40;;;;;;5054169;28;20045;-71
2021/08/18 10:15:42;;;;;;;6.28;2.60;;;21.50;64.30;;;;;;5045453;28;20034;-74
2021/08/18 10:18:08;;;;;;;4.93;2.80;;;21.50;64.30;;;;;;5033437;28;20044;-70
2021/08/18 10:20:36;;;;;;;7.40;3.42;;;21.50;64.30;;;;;;5045386;28;20021;-72
2021/08/18 10:23:12;;;;;;;6.88;2.72;;;21.50;64.20;;;;;;5048677;28;20075;-71
2021/08/18 10:25:45;;;;;;;7.07;2.75;;;21.50;64.30;;;;;;5053080;28;20029;-69
2021/08/18 10:28:11;;;;;;;6.47;2.97;;;21.50;64.20;;;;;;5037463;28;20035;-77
2021/08/18 10:30:54;;;;;;;4.93;2.60;;;21.50;64.40;;;;;;5063301;28;20031;-66
2021/08/18 10:33:50;;;;;;;5.18;2.60;;;21.60;64.20;;;;;;5043473;28;20036;-71
2021/08/18 10:36:42;;;;;;;5.82;2.78;;;21.60;64.10;;;;;;5041415;28;20107;-69
2021/08/18 10:39:25;;;;;;;6.55;3.53;;;21.60;64.00;;;;;;5032013;28;20035;-67
2021/08/18 10:42:06;;;;;;;6.23;2.70;;;21.60;64.00;;;;;;5038830;28;20048;-69
2021/08/18 10:44:49;;;;;;;7.35;2.90;;;21.70;64.00;;;;;;5052096;28;20055;-70
2021/08/18 10:47:28;;;;;;;6.88;3.25;;;21.70;63.90;;;;;;5040099;28;20021;-67
2021/08/18 10:49:59;;;;;;;5.53;2.70;;;21.70;63.80;;;;;;5045991;28;20507;-67
2021/08/18 10:52:30;;;;;;;6.18;2.28;;;21.70;63.80;;;;;;5065189;28;20127;-67
2021/08/18 10:55:16;;;;;;;7.40;3.17;;;21.70;63.80;;;;;;5054108;28;20013;-68
2021/08/18 10:57:49;;;;;;;9.80;2.60;;;21.70;63.80;;;;;;5025159;28;20025;-69
2021/08/18 11:00:20;;;;;;;5.50;2.37;;;21.80;63.70;;;;;;5051627;28;20032;-69
2021/08/18 11:02:59;;;;;;;5.78;2.70;;;21.90;63.50;;;;;;5065533;28;20020;-69
2021/08/18 11:05:49;;;;;;;4.82;2.60;;;21.90;63.70;;;;;;5045358;28;20055;-70
2021/08/18 11:08:36;;;;;;;6.78;2.90;;;21.90;63.80;;;;;;5056147;28;20033;-71
2021/08/18 11:11:01;;;;;;;5.60;2.67;;;21.90;63.60;;;;;;5057510;28;20044;-68
2021/08/18 11:14:11;;;;;;;7.82;3.92;;;21.90;63.70;;;;;;5031129;28;20037;-67
2021/08/18 11:16:37;;;;;;;8.15;2.97;;;21.80;63.70;;;;;;5037496;28;20082;-69
2021/08/18 11:19:08;;;;;;;7.18;3.00;;;21.80;63.80;;;;;;5061805;28;20037;-69
2021/08/18 11:21:35;;;;;;;10.02;3.33;;;21.90;64.10;;;;;;5044370;28;20108;-70
2021/08/18 11:24:13;;;;;;;5.00;2.75;;;21.90;64.00;;;;;;5062588;28;20480;-69
2021/08/18 11:26:40;;;;;;;5.13;2.85;;;21.80;63.90;;;;;;5029269;28;20030;-69
2021/08/18 11:29:10;;;;;;;5.60;2.45;;;21.90;64.00;;;;;;5059078;28;20058;-71
2021/08/18 11:31:49;;;;;;;7.30;2.80;;;21.90;64.00;;;;;;5058197;28;20052;-71
2021/08/18 11:34:19;;;;;;;6.95;2.90;;;21.90;64.00;;;;;;5038531;28;20044;-67
2021/08/18 11:36:45;;;;;;;6.70;2.90;;;21.90;64.10;;;;;;5051061;28;20037;-67
2021/08/18 11:39:11;;;;;;;6.15;2.72;;;21.90;64.10;;;;;;5058886;28;20048;-71
2021/08/18 11:41:40;;;;;;;5.45;2.88;;;21.90;64.10;;;;;;5069496;28;20096;-71
2021/08/18 11:44:07;;;;;;;6.43;2.80;;;21.80;64.10;;;;;;5049791;28;20044;-71
2021/08/18 11:46:33;;;;;;;5.50;2.70;;;21.80;64.20;;;;;;5049617;28;20435;-70
2021/08/18 11:49:08;;;;;;;7.00;2.50;;;21.80;64.20;;;;;;5050259;28;20473;-71
2021/08/18 11:51:34;;;;;;;6.68;3.15;;;21.80;64.10;;;;;;5041086;28;20034;-71
2021/08/18 11:54:00;;;;;;;4.85;2.55;;;21.80;64.10;;;;;;5063544;28;20063;-67
2021/08/18 11:56:30;;;;;;;5.22;2.55;;;21.80;64.10;;;;;;5053255;28;20056;-68
2021/08/18 11:59:03;;;;;;;6.25;3.13;;;21.80;64.20;;;;;;5065703;28;20029;-68
2021/08/18 12:01:29;;;;;;;5.20;2.50;;;21.80;64.10;;;;;;5047954;28;20473;-67
2021/08/18 12:03:55;;;;;;;6.65;2.72;;;21.80;64.20;;;;;;5031856;28;20041;-64
2021/08/18 12:06:37;;;;;;;7.45;2.88;;;21.80;64.20;;;;;;5046564;28;20362;-66
2021/08/18 12:09:19;;;;;;;8.15;3.17;;;21.80;64.20;;;;;;5043982;28;20024;-67
2021/08/18 12:11:45;;;;;;;6.85;2.88;;;21.70;64.20;;;;;;5065711;28;20043;-67
2021/08/18 12:14:14;;;;;;;5.97;2.80;;;21.80;64.20;;;;;;5041661;28;20029;-69
2021/08/18 12:16:40;;;;;;;6.28;2.78;;;21.80;64.20;;;;;;5053640;28;20025;-69
2021/08/18 12:19:16;;;;;;;6.18;3.08;;;21.70;64.30;;;;;;5056276;28;20468;-74
2021/08/18 12:21:43;;;;;;;5.40;2.63;;;21.70;64.30;;;;;;5054060;28;20403;-68
2021/08/18 12:24:14;;;;;;;7.20;3.00;;;21.80;64.30;;;;;;5041648;28;20441;-71
2021/08/18 12:26:46;;;;;;;8.73;2.80;;;21.80;64.30;;;;;;5038591;28;20100;-72
2021/08/18 12:29:19;;;;;;;5.43;2.70;;;21.80;64.20;;;;;;5043451;28;20105;-75
2021/08/18 12:32:11;;;;;;;6.53;2.38;;;21.80;64.30;;;;;;5054086;28;20495;-69
2021/08/18 12:34:41;;;;;;;4.93;2.75;;;21.80;64.20;;;;;;5037467;28;20521;-69
2021/08/18 12:37:11;;;;;;;7.70;2.55;;;21.80;64.10;;;;;;5059506;28;20098;-70
2021/08/18 12:39:44;;;;;;;5.80;2.75;;;21.80;64.30;;;;;;5053494;28;20029;-69
2021/08/18 12:42:28;;;;;;;7.28;3.47;;;21.90;64.10;;;;;;5052944;28;20151;-70
2021/08/18 12:44:58;;;;;;;8.93;2.90;;;21.80;64.20;;;;;;5038030;28;20098;-68
2021/08/18 12:47:31;;;;;;;6.03;2.80;;;21.90;64.30;;;;;;5049983;28;20028;-70
2021/08/18 12:49:56;;;;;;;5.30;2.80;;;21.90;64.20;;;;;;5045569;28;20112;-66